createdAt,value
2023-04-14T00:00:01.647Z,9.28
2023-04-14T00:15:02.352Z,8.89
2023-04-14T00:30:02.075Z,8.81
2023-04-14T00:45:01.740Z,8.66
2023-04-14T01:00:01.524Z,8.73
2023-04-14T01:15:02.476Z,8.67
2023-04-14T01:30:02.155Z,8.77
2023-04-14T01:45:01.808Z,8.82
2023-04-14T02:00:02.472Z,8.72
2023-04-14T02:15:02.116Z,8.57
2023-04-14T02:30:01.856Z,8.53
2023-04-14T02:45:01.559Z,8.39
2023-04-14T03:00:02.256Z,8.4
2023-04-14T03:15:01.995Z,8.45
2023-04-14T03:30:01.725Z,8.19
2023-04-14T03:45:02.386Z,8.33
2023-04-14T04:00:01.976Z,7.89
2023-04-14T04:15:01.651Z,7.64
2023-04-14T04:30:02.383Z,7.19
2023-04-14T04:45:02.104Z,7.17
2023-04-14T05:00:01.776Z,7.18
2023-04-14T05:15:01.455Z,7.22
2023-04-14T05:30:02.159Z,8.16
2023-04-14T05:45:02.485Z,9.07
2023-04-14T06:00:02.169Z,11.23
2023-04-14T06:15:01.803Z,15.65
2023-04-14T06:30:01.483Z,18.91
2023-04-14T06:45:02.129Z,21.27
2023-04-14T07:00:01.772Z,23.06
2023-04-14T07:15:01.419Z,26.14
2023-04-14T07:30:02.197Z,28.49
2023-04-14T07:45:01.879Z,29.33
2023-04-14T08:00:01.522Z,31.4
2023-04-14T08:15:02.181Z,31.53
2023-04-14T08:30:01.796Z,32.23
2023-04-14T08:45:01.402Z,35.54
2023-04-14T09:00:02.012Z,36.91
2023-04-14T09:15:01.725Z,37.18
2023-04-14T09:30:01.379Z,38.11
2023-04-14T09:45:02.065Z,37.58
2023-04-14T10:00:01.673Z,37.85
2023-04-14T10:15:01.276Z,38.92
2023-04-14T10:30:01.950Z,31.44
2023-04-14T10:45:01.629Z,37.81
2023-04-14T11:00:01.217Z,28.64
2023-04-14T11:15:01.818Z,32.07
2023-04-14T11:30:01.569Z,35.2
2023-04-14T11:45:01.241Z,42.47
2023-04-14T12:00:01.927Z,42.36
2023-04-14T12:15:01.622Z,36.33
2023-04-14T12:30:01.325Z,41.82
2023-04-14T12:45:01.976Z,41.55
2023-04-14T13:00:01.549Z,38.84
2023-04-14T13:15:01.217Z,35.14
2023-04-14T13:30:01.929Z,30.72
2023-04-14T13:45:01.553Z,36.26
2023-04-14T14:00:01.174Z,34.12
2023-04-14T14:15:01.770Z,32.24
2023-04-14T14:30:01.440Z,34.86
2023-04-14T14:45:01.293Z,36.55
2023-04-14T15:00:01.911Z,29.55
2023-04-14T15:15:01.570Z,28.61
2023-04-14T15:30:01.298Z,27.79
2023-04-14T15:45:01.969Z,32.04
2023-04-14T16:00:01.668Z,31.92
2023-04-14T16:15:01.360Z,32.07
2023-04-14T16:30:01.076Z,30.53
2023-04-14T16:45:01.736Z,28.49
2023-04-14T17:00:01.476Z,26.69
2023-04-14T17:15:01.500Z,24.3
2023-04-14T17:30:02.277Z,23.95
2023-04-14T17:45:02.314Z,22.74
2023-04-14T18:00:01.951Z,21.65
2023-04-14T18:15:01.599Z,20.17
2023-04-14T18:30:02.284Z,18.69
2023-04-14T18:45:01.919Z,17.68
2023-04-14T19:00:02.563Z,16.99
2023-04-14T19:15:02.265Z,16.56
2023-04-14T19:30:01.942Z,16.41
2023-04-14T19:45:01.660Z,16.24
2023-04-14T20:00:02.326Z,16.02
2023-04-14T20:15:02.062Z,15.78
2023-04-14T20:30:01.874Z,15.49
2023-04-14T20:45:01.563Z,15.2
2023-04-14T21:00:02.302Z,14.73
2023-04-14T21:15:47.197Z,14.53
2023-04-14T21:30:01.889Z,14.31
2023-04-14T21:45:01.570Z,14.07
2023-04-14T22:00:02.294Z,13.91
2023-04-14T22:15:01.956Z,13.79
2023-04-14T22:30:01.778Z,13.7
2023-04-14T22:45:01.578Z,13.62
2023-04-14T23:00:02.314Z,13.48
2023-04-14T23:15:01.987Z,13.23
2023-04-14T23:30:01.680Z,13.13
2023-04-14T23:45:02.398Z,12.99
